KCNI

Cherokee County Airport

Canton, Georgia, USA
METAR KCNI 240155Z AUTO 00000KT 1/2SM FG BKN002 22/21 A3009 RMK AO2
Observed Flight Rules
May-24 @ 01:55 UTC (23 minutes ago) Instrument Flight Rules
Visibility Clouds Conditions
1/2 miles
  • Broken at 200' AGL
  • Fog
Temperatures Readings
Current 22°C / 72°F
Dewpoint 21°C / 70°F
Humidity 94%
Altimeter 30.09" Hg
Pressure 1019 hPa
Elevation 372
METAR KCNI 240155Z AUTO 00000KT 1/2SM FG BKN002 22/21 A3009 RMK AO2
Observed Flight Rules
May-24 @ 01:55 UTC
(23 minutes ago)
LIFR
Clouds
  • Broken at 200' AGL
Conditions
  • Fog
Temperature Dewpoint
22°C / 72°F 21°C / 70°F
Humidity Altimeter Pressure
94% 30.09" Hg 1019 hPa